Time;durP1;ratioP1;P1;durP2;ratioP2;P2;SDS_P1;SDS_P2;PMS_P1;PMS_P2;Temp;Humidity;BMP_temperature;BMP_pressure;BME280_temperature;BME280_humidity;BME280_pressure;Samples;Min_cycle;Max_cycle;Signal;HPM_P1;HPM_P2
2024/02/28 05:40:54;;;;;;;;;;;;;;;-0.36;87.65;101315.35;96952;1310;23326;-55
2024/02/28 05:43:22;;;;;;;;;;;;;;;-0.32;87.66;101317.83;107199;1310;23266;-55
2024/02/28 05:45:48;;;;;;;;;;;;;;;-0.27;87.61;101317.64;107236;1294;22482;-49
2024/02/28 05:48:15;;;;;;;;;;;;;;;-0.20;87.48;101322.67;107214;1300;22469;-56
2024/02/28 05:50:43;;;;;;;;;;;;;;;-0.12;87.63;101318.21;107169;1307;22500;-49
2024/02/28 05:53:10;;;;;;;;;;;;;;;-0.03;87.39;101315.12;107200;1297;22472;-56
2024/02/28 05:55:37;;;;;;;;;;;;;;;0.08;87.38;101316.95;107152;1306;22642;-49
2024/02/28 05:58:05;;;;;;;;;;;;;;;0.19;87.17;101314.83;107117;1304;22490;-48
2024/02/28 06:00:34;;;;;;;;;;;;;;;0.30;87.02;101318.58;107168;1290;22472;-56
2024/02/28 06:03:03;;;;;;;;;;;;;;;0.41;86.82;101318.86;107234;1294;22485;-57
2024/02/28 06:05:30;;;;;;;;;;;;;;;0.51;86.70;101319.27;107249;1294;23268;-56
2024/02/28 06:08:00;;;;;;;;;;;;;;;0.62;86.47;101322.10;107318;1303;22459;-49
2024/02/28 06:10:34;;;;;;;;;;;;;;;0.74;86.33;101317.46;107168;1310;23102;-56
2024/02/28 06:13:02;;;;;;;;;;;;;;;0.84;85.44;101317.79;107219;1310;22537;-50
2024/02/28 06:15:30;;;;;;;;;;;;;;;0.88;85.27;101307.05;107163;1304;22482;-56
2024/02/28 06:18:00;;;;;;;;;;;;;;;0.95;84.93;101307.07;106793;1303;23330;-56
2024/02/28 06:20:27;;;;;;;;;;;;;;;1.01;84.80;101307.45;106923;1304;24059;-49
2024/02/28 06:22:55;;;;;;;;;;;;;;;1.09;84.58;101309.04;106777;1302;22516;-51
2024/02/28 06:25:34;;;;;;;;;;;;;;;1.16;83.72;101308.59;106974;1303;22505;-49
2024/02/28 06:50:06;;;;;;;;;;;;;;;1.80;82.55;101313.36;107161;1303;22504;-59
2024/02/28 07:02:15;;;;;;;;;;;;;;;2.23;80.22;101319.45;107067;1304;22499;-51
2024/02/28 07:04:59;;;;;;;;;;;;;;;2.33;79.79;101316.52;106720;1306;22491;-58
2024/02/28 07:14:53;;;;;;;;;;;;;;;2.54;79.22;101316.31;107005;1300;22577;-57
2024/02/28 07:17:35;;;;;;;;;;;;;;;2.58;78.77;101314.98;106902;1305;23042;-53
2024/02/28 07:20:51;;;;;;;;;;;;;;;2.67;79.02;101310.74;106916;1311;22567;-61
2024/02/28 07:28:50;;;;;;;;;;;;;;;3.03;77.53;101312.65;107081;1304;22492;-55
2024/02/28 07:31:20;;;;;;;;;;;;;;;3.15;77.04;101315.97;106581;1312;22651;-56
2024/02/28 07:38:46;;;;;;;;;;;;;;;3.45;75.97;101307.66;106195;1313;22829;-63
2024/02/28 07:42:01;;;;;;;;;;;;;;;3.57;75.36;101306.46;106370;1318;23214;-56
2024/02/28 07:44:53;;;;;;;;;;;;;;;3.72;74.89;101303.16;106832;1294;23346;-57
2024/02/28 07:47:43;;;;;;;;;;;;;;;3.85;74.04;101305.77;106999;1305;22510;-62
2024/02/28 07:50:26;;;;;;;;;;;;;;;3.92;74.11;101308.02;106945;1310;22581;-57
2024/02/28 07:53:15;;;;;;;;;;;;;;;4.03;74.03;101311.75;107114;1304;22528;-62
2024/02/28 07:55:56;;;;;;;;;;;;;;;4.17;73.69;101310.42;106986;1311;23585;-62
2024/02/28 07:58:36;;;;;;;;;;;;;;;4.27;73.42;101313.80;106938;1310;23197;-54
2024/02/28 08:01:08;;;;;;;;;;;;;;;4.37;72.85;101311.09;106928;1306;22492;-54
2024/02/28 08:04:22;;;;;;;;;;;;;;;4.44;72.46;101310.86;106855;1304;22498;-67
2024/02/28 08:06:59;;;;;;;;;;;;;;;4.55;72.79;101307.86;106808;1310;22500;-64
2024/02/28 08:09:32;;;;;;;;;;;;;;;4.69;72.09;101308.05;106811;1304;22609;-56
2024/02/28 08:17:31;;;;;;;;;;;;;;;5.00;70.89;101296.31;101507;1309;6859811;-65
2024/02/28 08:25:49;;;;;;;;;;;;;;;5.36;68.80;101285.56;106805;1306;23245;-63
2024/02/28 08:29:27;;;;;;;;;;;;;;;5.52;67.73;101278.36;106862;1306;22543;-55
2024/02/28 08:32:26;;;;;;;;;;;;;;;5.63;67.38;101275.10;106690;1309;22751;-57
2024/02/28 08:35:29;;;;;;;;;;;;;;;5.71;66.66;101271.59;106755;1310;23043;-57
2024/02/28 08:38:09;;;;;;;;;;;;;;;5.77;66.12;101262.96;106890;1306;23178;-51
2024/02/28 08:40:47;;;;;;;;;;;;;;;5.81;65.39;101268.33;106816;1306;22595;-58
2024/02/28 08:43:39;;;;;;;;;;;;;;;5.88;65.81;101265.10;106799;1306;23270;-51
2024/02/28 08:46:06;;;;;;;;;;;;;;;6.02;65.04;101267.14;106776;1306;22500;-60
2024/02/28 08:48:41;;;;;;;;;;;;;;;6.16;64.68;101261.91;106862;1307;22489;-61
2024/02/28 08:52:17;;;;;;;;;;;;;;;6.30;63.84;101264.45;106928;1307;22468;-58
2024/02/28 08:55:55;;;;;;;;;;;;;;;6.56;64.18;101257.30;106698;1305;22484;-56
2024/02/28 08:58:30;;;;;;;;;;;;;;;6.75;64.00;101257.02;106864;1306;22596;-58
2024/02/28 09:05:54;;;;;;;;;;;;;;;7.14;62.04;101260.98;106803;1313;22521;-52
2024/02/28 09:08:33;;;;;;;;;;;;;;;7.32;60.90;101258.73;106968;1315;22493;-58
2024/02/28 09:19:56;;;;;;;;;;;;;;;7.62;59.44;101254.02;106806;1292;22538;-51
2024/02/28 09:23:37;;;;;;;;;;;;;;;7.85;59.35;101257.40;106913;1303;22509;-58
2024/02/28 09:28:00;;;;;;;;;;;;;;;8.07;57.22;101261.61;106848;1304;22645;-57
2024/02/28 09:31:43;;;;;;;;;;;;;;;8.16;56.65;101260.96;106944;1303;22589;-54
2024/02/28 09:34:42;;;;;;;;;;;;;;;8.20;56.70;101254.63;107128;1296;22509;-58
2024/02/28 09:37:36;;;;;;;;;;;;;;;8.19;55.79;101248.02;106838;1306;22955;-54
2024/02/28 09:40:40;;;;;;;;;;;;;;;8.25;55.80;101243.64;106674;1310;22499;-54
2024/02/28 09:43:25;;;;;;;;;;;;;;;8.34;55.81;101241.79;106760;1309;22492;-56
2024/02/28 09:46:11;;;;;;;;;;;;;;;8.41;54.59;101235.19;106850;1306;22565;-54
2024/02/28 09:49:14;;;;;;;;;;;;;;;8.38;54.14;101228.52;106830;1309;22515;-55
2024/02/28 09:52:15;;;;;;;;;;;;;;;8.41;54.16;101227.55;106930;1305;23284;-55
2024/02/28 09:55:21;;;;;;;;;;;;;;;8.54;54.53;101224.19;106906;1309;22504;-57
2024/02/28 09:58:09;;;;;;;;;;;;;;;8.67;53.72;101232.31;106756;1306;22648;-55
2024/02/28 10:01:01;;;;;;;;;;;;;;;8.75;53.57;101229.20;106902;1307;22486;-58
2024/02/28 10:03:37;;;;;;;;;;;;;;;8.87;53.81;101221.63;106744;1306;22599;-56
2024/02/28 10:06:14;;;;;;;;;;;;;;;8.99;53.00;101223.27;106670;1306;22479;-54
2024/02/28 10:08:47;;;;;;;;;;;;;;;9.10;52.41;101217.77;106602;1309;22576;-54
2024/02/28 10:15:56;;;;;;;;;;;;;;;9.41;51.24;101211.58;107347;1304;22476;-55
2024/02/28 10:20:15;;;;;;;;;;;;;;;9.48;50.38;101207.88;106932;1305;22585;-54
2024/02/28 10:26:22;;;;;;;;;;;;;;;9.77;48.62;101205.63;106995;1292;22519;-57
2024/02/28 10:29:07;;;;;;;;;;;;;;;10.04;48.27;101197.55;106915;1306;22562;-56
2024/02/28 10:32:08;;;;;;;;;;;;;;;10.42;47.00;101193.48;107012;1303;22955;-55
2024/02/28 10:35:30;;;;;;;;;;;;;;;10.96;45.15;101186.36;106899;1306;22525;-55
2024/02/28 10:38:40;;;;;;;;;;;;;;;11.42;44.54;101181.83;106855;1304;23402;-56
2024/02/28 10:41:07;;;;;;;;;;;;;;;12.00;43.36;101182.93;106952;1304;22497;-55
2024/02/28 10:43:53;;;;;;;;;;;;;;;12.42;42.36;101176.60;106918;1304;23480;-56
2024/02/28 10:54:56;;;;;;;;;;;;;;;14.13;36.27;101147.65;106917;1303;23489;-56
2024/02/28 10:57:31;;;;;;;;;;;;;;;14.23;36.00;101145.18;106973;1310;23189;-56
2024/02/28 11:00:16;;;;;;;;;;;;;;;14.29;36.44;101144.47;106874;1306;22481;-56
2024/02/28 11:02:51;;;;;;;;;;;;;;;14.60;35.87;101139.85;106985;1298;22540;-58
2024/02/28 11:05:20;;;;;;;;;;;;;;;14.97;35.25;101140.61;106965;1309;23329;-59
2024/02/28 11:15:17;;;;;;;;;;;;;;;15.91;33.53;101131.56;107385;1299;22543;-59
2024/02/28 11:18:22;;;;;;;;;;;;;;;16.10;33.14;101136.84;107065;1304;23781;-60
2024/02/28 11:22:06;;;;;;;;;;;;;;;16.38;32.10;101133.75;106714;1306;22497;-56
2024/02/28 11:25:06;;;;;;;;;;;;;;;16.19;31.42;101132.37;106794;1307;22502;-55
2024/02/28 11:27:52;;;;;;;;;;;;;;;16.00;31.37;101132.55;106672;1308;23347;-55
2024/02/28 11:37:50;;;;;;;;;;;;;;;15.46;32.11;101136.10;106782;1312;23788;-59
2024/02/28 11:44:08;;;;;;;;;;;;;;;15.53;32.20;101136.23;106905;1312;23295;-54
2024/02/28 11:46:38;;;;;;;;;;;;;;;15.48;32.21;101134.48;106976;1312;22470;-61
2024/02/28 11:50:07;;;;;;;;;;;;;;;15.47;32.20;101134.16;106727;1310;22512;-55
2024/02/28 11:52:57;;;;;;;;;;;;;;;15.52;32.27;101127.42;106827;1309;22642;-55
2024/02/28 11:55:32;;;;;;;;;;;;;;;15.42;31.84;101132.79;106941;1312;22502;-60
2024/02/28 11:58:18;;;;;;;;;;;;;;;15.29;32.23;101133.04;106854;1306;22493;-55
2024/02/28 12:01:12;;;;;;;;;;;;;;;15.27;32.16;101125.86;106856;1309;22489;-58
2024/02/28 12:03:48;;;;;;;;;;;;;;;15.21;31.94;101123.95;106905;1309;22531;-57
2024/02/28 12:06:25;;;;;;;;;;;;;;;15.05;31.84;101127.04;106916;1307;22493;-54
2024/02/28 12:10:11;;;;;;;;;;;;;;;14.69;32.20;101126.15;106759;1305;22516;-55
2024/02/28 12:13:46;;;;;;;;;;;;;;;14.32;32.78;101129.37;106834;1307;22606;-57
2024/02/28 12:17:20;;;;;;;;;;;;;;;14.20;33.39;101129.58;106663;1306;22948;-58
2024/02/28 12:20:08;;;;;;;;;;;;;;;14.06;33.60;101127.13;106648;1310;22581;-58
2024/02/28 12:28:39;;;;;;;;;;;;;;;13.32;34.52;101133.94;106698;1306;23254;-63
2024/02/28 12:36:40;;;;;;;;;;;;;;;13.34;34.34;101135.87;106954;1306;22499;-54
2024/02/28 12:39:51;;;;;;;;;;;;;;;13.78;34.71;101131.54;107551;1292;22531;-62
2024/02/28 12:48:07;;;;;;;;;;;;;;;14.49;33.42;101122.52;107037;1306;22487;-55
2024/02/28 12:50:37;;;;;;;;;;;;;;;14.52;33.20;101124.09;106903;1306;22514;-52
2024/02/28 12:53:40;;;;;;;;;;;;;;;14.52;32.92;101128.66;107018;1306;22504;-55
2024/02/28 12:56:08;;;;;;;;;;;;;;;14.48;33.38;101129.19;106461;1310;22621;-59
2024/02/28 12:58:39;;;;;;;;;;;;;;;14.59;33.12;101127.58;106394;1312;23913;-58
2024/02/28 13:01:12;;;;;;;;;;;;;;;14.69;32.68;101122.98;106447;1310;23994;-60
2024/02/28 13:03:49;;;;;;;;;;;;;;;14.58;32.84;101127.05;106385;1309;22503;-60
2024/02/28 13:06:18;;;;;;;;;;;;;;;14.35;33.16;101129.02;106496;1312;22498;-60
2024/02/28 13:08:51;;;;;;;;;;;;;;;14.10;33.24;101132.58;106372;1311;23423;-60
2024/02/28 13:11:25;;;;;;;;;;;;;;;13.81;33.76;101130.13;106449;1310;22496;-60
2024/02/28 13:13:54;;;;;;;;;;;;;;;13.58;33.79;101134.50;106519;1291;22531;-58
2024/02/28 13:16:22;;;;;;;;;;;;;;;13.40;34.17;101132.73;106797;1304;23275;-60
2024/02/28 13:18:53;;;;;;;;;;;;;;;13.21;34.49;101136.36;106842;1306;22505;-59
2024/02/28 13:21:21;;;;;;;;;;;;;;;13.05;34.83;101131.73;106824;1304;22471;-58
2024/02/28 13:23:49;;;;;;;;;;;;;;;12.89;34.75;101130.80;106845;1311;23163;-58
2024/02/28 13:26:17;;;;;;;;;;;;;;;12.76;34.81;101129.00;106984;1304;23285;-61
2024/02/28 13:28:46;;;;;;;;;;;;;;;12.68;35.30;101129.85;107018;1306;22557;-59
2024/02/28 13:31:22;;;;;;;;;;;;;;;12.68;35.28;101129.14;107091;1306;22470;-61
2024/02/28 13:33:49;;;;;;;;;;;;;;;12.75;35.18;101130.40;107090;1310;23355;-61
2024/02/28 13:36:18;;;;;;;;;;;;;;;12.80;35.38;101129.19;107128;1309;22517;-58
2024/02/28 13:38:46;;;;;;;;;;;;;;;12.87;35.29;101126.77;107161;1306;22491;-58
2024/02/28 13:41:13;;;;;;;;;;;;;;;12.98;35.20;101124.88;107192;1310;22450;-58
2024/02/28 13:43:41;;;;;;;;;;;;;;;13.13;34.84;101118.96;107115;1306;22471;-60
2024/02/28 13:46:11;;;;;;;;;;;;;;;13.15;34.62;101118.80;107200;1304;23452;-58
2024/02/28 13:48:43;;;;;;;;;;;;;;;13.03;34.80;101118.95;107165;1304;22995;-58
2024/02/28 13:51:11;;;;;;;;;;;;;;;12.93;35.05;101119.61;107129;1308;22587;-59
2024/02/28 13:53:38;;;;;;;;;;;;;;;12.87;35.59;101119.41;107281;1310;22482;-60
2024/02/28 13:56:06;;;;;;;;;;;;;;;12.84;35.03;101111.18;107062;1312;22476;-57
2024/02/28 13:58:35;;;;;;;;;;;;;;;12.82;35.34;101114.49;107130;1310;22473;-57
2024/02/28 14:01:13;;;;;;;;;;;;;;;12.90;35.55;101116.27;107035;1311;22998;-58
2024/02/28 14:03:41;;;;;;;;;;;;;;;12.89;35.63;101116.80;107189;1310;22480;-60
2024/02/28 14:06:10;;;;;;;;;;;;;;;12.76;35.90;101117.10;107109;1312;22524;-58
2024/02/28 14:08:38;;;;;;;;;;;;;;;12.60;35.36;101120.18;107201;1309;22492;-61
2024/02/28 14:11:10;;;;;;;;;;;;;;;12.41;35.46;101116.58;107161;1304;22492;-59
2024/02/28 14:13:39;;;;;;;;;;;;;;;12.31;35.64;101112.15;107150;1306;23406;-60
2024/02/28 14:16:07;;;;;;;;;;;;;;;12.18;35.44;101113.99;107140;1306;22483;-58
2024/02/28 14:18:35;;;;;;;;;;;;;;;11.97;36.04;101112.80;107134;1304;22519;-60
2024/02/28 14:21:03;;;;;;;;;;;;;;;11.85;36.45;101113.23;107203;1304;22478;-58
2024/02/28 14:23:36;;;;;;;;;;;;;;;11.76;36.45;101109.12;107235;1310;22506;-57
2024/02/28 14:26:04;;;;;;;;;;;;;;;11.65;36.80;101113.74;107137;1306;22997;-61
2024/02/28 14:28:32;;;;;;;;;;;;;;;11.48;37.39;101112.55;107160;1310;22525;-58
2024/02/28 14:30:59;;;;;;;;;;;;;;;11.30;37.65;101112.89;107172;1310;22584;-60
2024/02/28 14:33:27;;;;;;;;;;;;;;;11.15;38.15;101117.28;107135;1310;22564;-57
2024/02/28 14:36:07;;;;;;;;;;;;;;;11.02;38.60;101112.60;107220;1310;23274;-57
2024/02/28 14:38:35;;;;;;;;;;;;;;;10.89;38.66;101111.92;107125;1310;22507;-60
2024/02/28 14:41:07;;;;;;;;;;;;;;;10.80;38.71;101114.80;107131;1306;22509;-60
2024/02/28 14:43:37;;;;;;;;;;;;;;;10.71;38.79;101120.78;107146;1311;23289;-59
2024/02/28 14:46:07;;;;;;;;;;;;;;;10.59;39.29;101116.96;107241;1310;22581;-58
2024/02/28 14:48:35;;;;;;;;;;;;;;;10.45;39.59;101120.61;107132;1305;22509;-57
2024/02/28 14:51:04;;;;;;;;;;;;;;;10.32;40.00;101122.35;107104;1307;22454;-57
2024/02/28 14:53:37;;;;;;;;;;;;;;;10.17;40.38;101122.81;107130;1297;22873;-60
2024/02/28 14:56:08;;;;;;;;;;;;;;;10.05;40.60;101120.54;107070;1310;22464;-58
2024/02/28 14:58:39;;;;;;;;;;;;;;;9.95;40.89;101122.64;107058;1311;23191;-57
2024/02/28 15:01:07;;;;;;;;;;;;;;;9.83;41.26;101116.37;107140;1310;22496;-57
2024/02/28 15:03:35;;;;;;;;;;;;;;;9.70;41.49;101121.02;107123;1293;23731;-59
2024/02/28 15:06:08;;;;;;;;;;;;;;;9.57;41.87;101118.71;107255;1310;22713;-58
2024/02/28 15:08:36;;;;;;;;;;;;;;;9.47;42.14;101122.20;107166;1303;23517;-60
2024/02/28 15:11:05;;;;;;;;;;;;;;;9.42;42.53;101119.84;107141;1307;22563;-58
2024/02/28 15:13:33;;;;;;;;;;;;;;;9.36;42.60;101113.47;107140;1310;23207;-56
2024/02/28 15:16:05;;;;;;;;;;;;;;;9.35;43.01;101115.72;107148;1310;22459;-57
2024/02/28 15:19:08;;;;;;;;;;;;;;;9.35;42.98;101113.45;106989;1303;22494;-60
2024/02/28 15:21:36;;;;;;;;;;;;;;;9.25;43.09;101117.44;107182;1310;23285;-57
2024/02/28 15:24:04;;;;;;;;;;;;;;;9.10;43.16;101115.78;107299;1310;22524;-57
